createdAt,value
2022-10-31T00:01:26.646Z,11.70
2022-10-31T00:03:53.823Z,11.80
2022-10-31T00:06:21.424Z,11.90
2022-10-31T00:08:53.294Z,11.90
2022-10-31T00:11:20.422Z,11.90
2022-10-31T00:13:47.546Z,11.80
2022-10-31T00:16:18.897Z,11.80
2022-10-31T00:18:50.460Z,11.80
2022-10-31T00:21:18.003Z,11.80
2022-10-31T00:23:45.035Z,11.90
2022-10-31T00:26:12.033Z,11.70
2022-10-31T00:28:39.144Z,11.60
2022-10-31T00:31:09.285Z,11.60
2022-10-31T00:33:38.592Z,11.50
2022-10-31T00:36:07.114Z,11.50
2022-10-31T00:38:34.573Z,11.50
2022-10-31T00:41:01.605Z,11.60
2022-10-31T00:43:28.996Z,11.40
2022-10-31T00:45:56.196Z,11.40
2022-10-31T00:48:25.389Z,11.40
2022-10-31T00:50:53.730Z,11.40
2022-10-31T00:53:20.991Z,11.50
2022-10-31T00:55:48.427Z,11.60
2022-10-31T00:58:16.033Z,11.60
2022-10-31T01:00:44.601Z,11.60
2022-10-31T01:03:13.945Z,11.60
2022-10-31T01:05:42.250Z,11.60
2022-10-31T01:08:09.541Z,11.40
2022-10-31T01:10:36.605Z,11.40
2022-10-31T01:13:03.671Z,11.30
2022-10-31T01:15:30.724Z,11.30
2022-10-31T01:17:58.346Z,11.30
2022-10-31T01:20:25.825Z,11.30
2022-10-31T01:22:54.418Z,11.30
2022-10-31T01:25:24.599Z,11.40
2022-10-31T01:27:51.618Z,11.40
2022-10-31T01:30:18.624Z,11.50
2022-10-31T01:32:45.688Z,11.50
2022-10-31T01:35:12.739Z,11.60
2022-10-31T01:37:39.752Z,11.50
2022-10-31T01:40:07.738Z,11.40
2022-10-31T01:42:34.783Z,11.30
2022-10-31T01:45:03.658Z,11.30
2022-10-31T01:47:42.448Z,11.30
2022-10-31T01:50:33.756Z,11.30
2022-10-31T01:53:01.817Z,11.30
2022-10-31T01:55:33.644Z,11.30
2022-10-31T01:58:06.437Z,11.40
2022-10-31T02:00:33.697Z,11.30
2022-10-31T02:03:01.447Z,11.30
2022-10-31T02:05:31.391Z,11.20
2022-10-31T02:08:05.607Z,11.20
2022-10-31T02:10:34.596Z,11.30
2022-10-31T02:13:04.702Z,11.20
2022-10-31T02:15:33.243Z,11.20
2022-10-31T02:18:01.062Z,11.20
2022-10-31T02:20:40.698Z,11.10
2022-10-31T02:23:57.207Z,11.20
2022-10-31T02:26:46.332Z,11.20
2022-10-31T02:29:43.169Z,11.20
2022-10-31T02:32:39.281Z,11.20
2022-10-31T02:35:42.166Z,11.20
2022-10-31T02:38:36.332Z,11.20
2022-10-31T02:41:47.908Z,11.30
2022-10-31T02:44:52.999Z,11.30
2022-10-31T02:47:25.441Z,11.20
2022-10-31T02:50:18.715Z,11.10
2022-10-31T02:52:53.071Z,11.10
2022-10-31T02:55:52.207Z,11.20
2022-10-31T02:58:24.164Z,11.20
2022-10-31T03:01:11.168Z,11.20
2022-10-31T03:03:58.930Z,11.20
2022-10-31T03:07:02.147Z,11.30
2022-10-31T03:09:47.969Z,11.30
2022-10-31T03:12:51.617Z,11.20
2022-10-31T03:15:33.474Z,11.20
2022-10-31T03:18:14.396Z,11.10
2022-10-31T03:20:45.794Z,11.20
2022-10-31T03:23:17.211Z,11.20
2022-10-31T03:25:50.205Z,11.00
2022-10-31T03:28:20.181Z,11.00
2022-10-31T03:30:49.410Z,11.00
2022-10-31T03:33:20.730Z,11.00
2022-10-31T03:35:52.093Z,11.00
2022-10-31T03:38:21.254Z,11.00
2022-10-31T03:40:52.034Z,11.10
2022-10-31T03:43:25.005Z,11.10
2022-10-31T03:45:52.536Z,11.10
2022-10-31T03:48:21.547Z,11.10
2022-10-31T03:51:05.225Z,11.00
2022-10-31T03:53:39.273Z,11.00
2022-10-31T03:56:20.667Z,11.00
2022-10-31T03:58:56.742Z,11.00
2022-10-31T04:01:25.826Z,10.90
2022-10-31T04:03:54.038Z,11.00
2022-10-31T04:06:22.645Z,11.10
2022-10-31T04:08:57.326Z,11.10
2022-10-31T04:11:29.803Z,11.00
2022-10-31T04:14:32.391Z,11.00
2022-10-31T04:17:02.178Z,11.10
2022-10-31T04:19:35.817Z,11.00
2022-10-31T04:22:03.029Z,11.00
2022-10-31T04:24:30.509Z,11.00
2022-10-31T04:26:58.667Z,11.00
2022-10-31T04:29:26.043Z,11.00
2022-10-31T04:31:53.721Z,11.10
2022-10-31T04:34:20.799Z,11.10
2022-10-31T04:36:47.820Z,11.20
2022-10-31T04:39:16.660Z,11.00
2022-10-31T04:42:04.083Z,11.10
2022-10-31T04:44:32.654Z,11.10
2022-10-31T04:47:01.775Z,11.00
2022-10-31T04:49:28.831Z,11.00
2022-10-31T04:51:56.704Z,11.10
2022-10-31T04:54:24.964Z,10.90
2022-10-31T04:57:27.353Z,10.90
2022-10-31T04:59:55.706Z,10.90
2022-10-31T05:02:23.788Z,10.90
2022-10-31T05:04:55.927Z,10.90
2022-10-31T05:07:23.443Z,10.90
2022-10-31T05:09:50.454Z,10.90
2022-10-31T05:12:19.830Z,10.80
2022-10-31T05:15:07.119Z,10.90
2022-10-31T05:17:53.720Z,10.90
2022-10-31T05:20:46.555Z,11.00
2022-10-31T05:23:23.721Z,11.00
2022-10-31T05:25:50.841Z,11.10
2022-10-31T05:28:18.298Z,11.10
2022-10-31T05:30:45.413Z,11.00
2022-10-31T05:33:15.729Z,11.10
2022-10-31T05:36:08.977Z,11.00
2022-10-31T05:38:41.817Z,10.90
2022-10-31T05:41:17.294Z,11.10
2022-10-31T05:43:47.245Z,11.00
2022-10-31T05:46:15.395Z,11.00
2022-10-31T05:49:02.842Z,11.00
2022-10-31T05:51:48.641Z,11.00
2022-10-31T05:54:16.319Z,11.00
2022-10-31T05:56:45.941Z,11.00
2022-10-31T05:59:13.038Z,11.00
2022-10-31T06:01:41.064Z,11.00
2022-10-31T06:04:21.691Z,10.90
2022-10-31T06:06:48.913Z,10.90
2022-10-31T06:09:16.818Z,10.90
2022-10-31T06:11:45.280Z,10.90
2022-10-31T06:14:30.927Z,10.90
2022-10-31T06:16:58.673Z,10.80
2022-10-31T06:19:44.563Z,10.70
2022-10-31T06:22:16.062Z,10.90
2022-10-31T06:24:43.888Z,10.70
2022-10-31T06:27:22.764Z,10.80
2022-10-31T06:29:49.788Z,10.80
2022-10-31T06:32:28.697Z,10.90
2022-10-31T06:34:55.758Z,10.90
2022-10-31T06:37:23.998Z,10.80
2022-10-31T06:39:51.736Z,10.90
2022-10-31T06:42:19.145Z,10.90
2022-10-31T06:44:46.759Z,10.90
2022-10-31T06:48:10.880Z,10.90
2022-10-31T06:50:33.363Z,11.00
2022-10-31T06:53:00.686Z,11.00
2022-10-31T06:55:28.157Z,10.90
2022-10-31T06:58:00.240Z,11.00
2022-10-31T07:00:31.637Z,11.00
2022-10-31T07:03:12.245Z,11.00
2022-10-31T07:05:39.667Z,11.10
2022-10-31T07:08:09.635Z,11.10
2022-10-31T07:10:40.483Z,11.10
2022-10-31T07:13:14.136Z,11.10
2022-10-31T07:15:45.879Z,11.20
2022-10-31T07:18:14.146Z,11.30
2022-10-31T07:20:41.336Z,11.20
2022-10-31T07:23:11.727Z,11.10
2022-10-31T07:25:40.581Z,11.10
2022-10-31T07:28:12.562Z,11.20
2022-10-31T07:30:40.075Z,11.10
2022-10-31T07:33:09.502Z,11.10
2022-10-31T07:35:55.488Z,11.00
2022-10-31T07:38:25.176Z,11.10
2022-10-31T07:40:56.456Z,11.00
2022-10-31T07:43:24.969Z,11.00
2022-10-31T07:46:12.550Z,10.80
2022-10-31T07:49:03.007Z,10.80
2022-10-31T07:52:02.496Z,10.80
2022-10-31T07:54:55.399Z,11.00
2022-10-31T07:57:25.326Z,11.00
2022-10-31T07:59:53.118Z,10.80
2022-10-31T08:02:20.275Z,10.90
2022-10-31T08:05:06.772Z,11.00
2022-10-31T08:08:07.027Z,11.00
2022-10-31T08:10:34.991Z,10.90
2022-10-31T08:13:09.327Z,10.90
2022-10-31T08:15:41.050Z,11.00
2022-10-31T08:18:14.035Z,10.90
2022-10-31T08:20:44.534Z,10.90
2022-10-31T08:23:13.170Z,11.00
2022-10-31T08:25:43.309Z,11.00
2022-10-31T08:28:12.737Z,11.00
2022-10-31T08:30:42.813Z,10.90
2022-10-31T08:33:28.563Z,11.10
2022-10-31T08:36:14.367Z,11.10
2022-10-31T08:38:56.515Z,11.00
2022-10-31T08:41:28.342Z,11.00
2022-10-31T08:43:55.631Z,11.00
2022-10-31T08:46:22.679Z,11.00
2022-10-31T08:48:50.340Z,11.20
2022-10-31T08:51:18.482Z,11.40
2022-10-31T08:53:45.772Z,11.30
2022-10-31T08:56:48.240Z,11.20
2022-10-31T08:59:32.038Z,11.10
2022-10-31T09:02:18.426Z,11.10
2022-10-31T09:04:45.702Z,11.20
2022-10-31T09:07:20.467Z,11.50
2022-10-31T09:09:48.649Z,11.60
2022-10-31T09:12:15.762Z,11.80
2022-10-31T09:15:03.040Z,11.70
2022-10-31T09:17:38.772Z,11.60
2022-10-31T09:20:31.317Z,11.90
2022-10-31T09:23:06.956Z,11.70
2022-10-31T09:25:36.898Z,11.60
2022-10-31T09:28:25.337Z,11.50
2022-10-31T09:30:54.899Z,11.80
2022-10-31T09:33:43.185Z,12.00
2022-10-31T09:36:30.202Z,12.00
2022-10-31T09:38:57.883Z,12.00
2022-10-31T09:42:13.600Z,11.80
2022-10-31T09:45:29.526Z,12.00
2022-10-31T09:48:28.320Z,12.00
2022-10-31T09:51:23.574Z,12.20
2022-10-31T09:54:35.817Z,12.00
2022-10-31T09:57:03.766Z,12.10
2022-10-31T09:59:39.926Z,11.90
2022-10-31T10:02:30.636Z,12.00
2022-10-31T10:05:03.066Z,11.80
2022-10-31T10:07:40.495Z,11.80
2022-10-31T10:11:28.806Z,11.80
2022-10-31T10:14:20.636Z,11.80
2022-10-31T10:17:48.788Z,11.80
2022-10-31T10:21:04.505Z,12.00
2022-10-31T10:24:23.519Z,12.00
2022-10-31T10:27:33.729Z,12.40
2022-10-31T10:30:13.660Z,12.50
2022-10-31T10:32:57.732Z,12.30
2022-10-31T10:35:43.387Z,12.50
2022-10-31T10:38:39.504Z,12.40
2022-10-31T10:41:20.252Z,12.30
2022-10-31T10:43:49.889Z,12.40
2022-10-31T10:47:17.281Z,12.40
2022-10-31T10:49:52.124Z,12.70
2022-10-31T10:53:09.246Z,12.80
2022-10-31T10:56:13.976Z,13.00
2022-10-31T10:58:43.685Z,13.20
2022-10-31T11:03:45.718Z,13.60
2022-10-31T11:06:27.119Z,13.90
2022-10-31T11:08:54.781Z,13.90
2022-10-31T11:11:35.125Z,14.10
2022-10-31T11:14:13.507Z,14.10
2022-10-31T11:16:46.677Z,15.70
2022-10-31T11:19:26.491Z,16.30
2022-10-31T11:21:54.474Z,17.40
2022-10-31T11:24:24.674Z,19.00
2022-10-31T11:26:52.421Z,17.40
2022-10-31T11:29:26.017Z,16.60
2022-10-31T11:31:55.304Z,16.10
2022-10-31T11:34:34.144Z,18.10
2022-10-31T11:37:18.256Z,18.60
2022-10-31T11:39:50.157Z,17.00
2022-10-31T11:42:17.275Z,17.60
2022-10-31T11:44:45.172Z,17.40
2022-10-31T11:47:17.439Z,20.70
2022-10-31T11:49:47.428Z,24.70
2022-10-31T11:52:31.105Z,25.60
2022-10-31T11:55:15.211Z,24.80
2022-10-31T11:57:50.686Z,24.60
2022-10-31T12:00:37.661Z,21.60
2022-10-31T12:03:44.517Z,22.90
2022-10-31T12:06:34.250Z,23.80
2022-10-31T12:09:01.554Z,25.40
2022-10-31T12:12:11.650Z,25.30
2022-10-31T12:15:21.442Z,25.70
2022-10-31T12:18:21.368Z,24.00
2022-10-31T12:21:31.801Z,24.20
2022-10-31T12:24:13.525Z,24.60
2022-10-31T12:27:10.103Z,23.30
2022-10-31T12:30:23.944Z,22.80
2022-10-31T12:33:35.378Z,24.00
2022-10-31T12:36:57.104Z,24.00
2022-10-31T12:39:43.204Z,22.70
2022-10-31T12:42:59.602Z,25.80
2022-10-31T12:45:46.480Z,27.10
2022-10-31T12:48:48.185Z,26.00
2022-10-31T12:55:00.466Z,24.80
2022-10-31T12:57:41.531Z,25.20
2022-10-31T13:00:19.704Z,23.80
2022-10-31T13:03:18.347Z,24.10
2022-10-31T13:05:49.334Z,24.00
2022-10-31T13:08:41.687Z,25.60
2022-10-31T13:11:16.863Z,25.20
2022-10-31T13:14:23.100Z,25.40
2022-10-31T13:16:50.968Z,24.20
2022-10-31T13:19:24.709Z,24.90
2022-10-31T13:22:08.001Z,23.90
2022-10-31T13:25:03.179Z,23.40
2022-10-31T13:28:01.794Z,23.10
2022-10-31T13:30:33.746Z,24.60
2022-10-31T13:33:41.446Z,24.30
2022-10-31T13:36:38.121Z,23.40
2022-10-31T13:39:31.437Z,24.10
2022-10-31T13:42:33.704Z,24.60
2022-10-31T13:45:18.040Z,25.20
2022-10-31T13:47:56.945Z,27.30
2022-10-31T13:50:29.708Z,28.10
2022-10-31T13:53:45.541Z,27.50
2022-10-31T13:56:34.211Z,27.20
2022-10-31T13:59:22.282Z,26.00
2022-10-31T14:01:52.674Z,23.30
2022-10-31T14:04:26.418Z,21.90
2022-10-31T14:07:07.960Z,20.90
2022-10-31T14:10:18.671Z,22.00
2022-10-31T14:12:48.061Z,23.80
2022-10-31T14:15:23.845Z,23.30
2022-10-31T14:18:06.687Z,24.10
2022-10-31T14:20:40.982Z,23.50
2022-10-31T14:23:47.425Z,21.70
2022-10-31T14:26:36.973Z,20.40
2022-10-31T14:29:32.533Z,20.20
2022-10-31T14:32:36.547Z,21.90
2022-10-31T14:35:04.764Z,21.70
2022-10-31T14:38:39.425Z,21.40
2022-10-31T14:41:46.426Z,24.00
2022-10-31T14:44:42.859Z,25.30
2022-10-31T14:47:40.843Z,24.40
2022-10-31T14:50:22.817Z,25.30
2022-10-31T14:52:58.511Z,25.20
2022-10-31T14:55:27.038Z,23.00
2022-10-31T14:58:02.101Z,22.80
2022-10-31T15:00:30.604Z,24.60
2022-10-31T15:03:23.058Z,25.40
2022-10-31T15:05:53.688Z,26.10
2022-10-31T15:08:40.646Z,25.50
2022-10-31T15:11:20.009Z,25.50
2022-10-31T15:14:22.159Z,25.50
2022-10-31T15:16:49.546Z,25.00
2022-10-31T15:19:25.498Z,23.90
2022-10-31T15:21:54.586Z,23.20
2022-10-31T15:24:24.085Z,22.20
2022-10-31T15:26:53.570Z,21.00
2022-10-31T15:29:26.869Z,19.90
2022-10-31T15:32:19.393Z,20.00
2022-10-31T15:34:47.299Z,19.80
2022-10-31T15:37:17.294Z,19.40
2022-10-31T15:39:45.820Z,19.00
2022-10-31T15:42:33.602Z,18.50
2022-10-31T15:45:17.644Z,18.10
2022-10-31T15:48:00.251Z,17.70
2022-10-31T15:50:41.563Z,17.40
2022-10-31T15:53:18.727Z,17.10
2022-10-31T15:56:01.600Z,16.80
2022-10-31T15:58:29.722Z,16.50
2022-10-31T16:01:20.271Z,16.40
2022-10-31T16:04:17.987Z,16.10
2022-10-31T16:07:02.578Z,15.90
2022-10-31T16:09:30.069Z,15.80
2022-10-31T16:11:59.221Z,15.60
2022-10-31T16:14:30.198Z,15.60
2022-10-31T16:16:59.854Z,15.40
2022-10-31T16:19:31.445Z,15.30
2022-10-31T16:22:12.974Z,15.10
2022-10-31T16:24:50.849Z,15.00
2022-10-31T16:27:30.781Z,14.70
2022-10-31T16:30:02.623Z,14.70
2022-10-31T16:32:36.337Z,14.80
2022-10-31T16:35:36.972Z,14.70
2022-10-31T16:38:05.184Z,14.60
2022-10-31T16:40:32.957Z,14.60
2022-10-31T16:43:01.767Z,14.60
2022-10-31T16:45:31.558Z,14.60
2022-10-31T16:48:11.180Z,14.50
2022-10-31T16:50:39.052Z,14.40
2022-10-31T16:53:13.868Z,14.30
2022-10-31T16:55:47.142Z,14.20
2022-10-31T16:58:23.781Z,14.30
2022-10-31T17:00:51.300Z,14.10
2022-10-31T17:03:18.543Z,14.00
2022-10-31T17:05:45.625Z,14.00
2022-10-31T17:08:13.144Z,14.00
2022-10-31T17:10:41.557Z,14.00
2022-10-31T17:13:16.228Z,13.90
2022-10-31T17:15:48.574Z,13.80
2022-10-31T17:18:16.793Z,13.80
2022-10-31T17:20:44.879Z,13.70
2022-10-31T17:23:13.462Z,13.70
2022-10-31T17:25:41.517Z,13.70
2022-10-31T17:28:13.054Z,13.70
2022-10-31T17:30:41.798Z,13.70
2022-10-31T17:33:14.402Z,13.70
2022-10-31T17:35:42.942Z,13.60
2022-10-31T17:38:10.013Z,13.50
2022-10-31T17:40:39.380Z,13.40
2022-10-31T17:43:06.492Z,13.50
2022-10-31T17:45:33.668Z,13.40
2022-10-31T17:48:00.731Z,13.40
2022-10-31T17:50:27.930Z,13.30
2022-10-31T17:52:54.960Z,13.20
2022-10-31T17:55:21.969Z,13.20
2022-10-31T17:57:49.217Z,13.30
2022-10-31T18:00:21.037Z,13.20
2022-10-31T18:02:48.372Z,13.20
2022-10-31T18:05:15.467Z,13.10
2022-10-31T18:07:42.491Z,13.00
2022-10-31T18:10:10.746Z,12.80
2022-10-31T18:12:38.196Z,12.70
2022-10-31T18:15:05.991Z,12.80
2022-10-31T18:17:34.900Z,12.90
2022-10-31T18:20:04.870Z,12.90
2022-10-31T18:22:32.047Z,12.90
2022-10-31T18:25:02.081Z,12.80
2022-10-31T18:27:29.664Z,12.80
2022-10-31T18:29:56.719Z,12.80
2022-10-31T18:32:23.747Z,12.80
2022-10-31T18:34:50.815Z,12.70
2022-10-31T18:37:17.913Z,12.60
2022-10-31T18:39:44.911Z,12.60
2022-10-31T18:42:12.015Z,12.50
2022-10-31T18:44:39.056Z,12.50
2022-10-31T18:47:06.052Z,12.40
2022-10-31T18:49:33.671Z,12.40
2022-10-31T18:52:00.836Z,12.60
2022-10-31T18:54:27.949Z,12.50
2022-10-31T18:56:56.039Z,12.60
2022-10-31T18:59:23.284Z,12.50
2022-10-31T19:01:50.344Z,12.40
2022-10-31T19:04:17.557Z,12.40
2022-10-31T19:06:44.694Z,12.40
2022-10-31T19:09:11.726Z,12.40
2022-10-31T19:11:39.691Z,12.40
2022-10-31T19:14:08.571Z,12.40
2022-10-31T19:16:35.951Z,12.50
2022-10-31T19:19:03.344Z,12.60
2022-10-31T19:21:32.331Z,12.60
2022-10-31T19:24:00.728Z,12.60
2022-10-31T19:26:28.706Z,12.60
2022-10-31T19:28:56.667Z,12.60
2022-10-31T19:31:24.772Z,12.60
2022-10-31T19:33:51.917Z,12.50
2022-10-31T19:36:20.079Z,12.50
2022-10-31T19:38:49.366Z,12.50
2022-10-31T19:41:21.732Z,12.40
2022-10-31T19:43:49.135Z,12.40
2022-10-31T19:46:27.719Z,12.40
2022-10-31T19:49:05.437Z,12.40
2022-10-31T19:51:32.441Z,12.30
2022-10-31T19:53:59.506Z,12.30
2022-10-31T19:56:26.577Z,12.30
2022-10-31T19:58:53.592Z,12.20
2022-10-31T20:01:23.099Z,12.00
2022-10-31T20:03:50.662Z,12.00
2022-10-31T20:06:26.800Z,12.00
2022-10-31T20:08:56.225Z,12.00
2022-10-31T20:11:25.199Z,11.90
2022-10-31T20:13:54.381Z,12.00
2022-10-31T20:16:21.570Z,11.90
2022-10-31T20:18:48.655Z,11.90
2022-10-31T20:21:19.314Z,12.00
2022-10-31T20:23:47.625Z,11.90
2022-10-31T20:26:17.962Z,11.90
2022-10-31T20:28:45.583Z,11.80
2022-10-31T20:31:19.547Z,11.80
2022-10-31T20:33:47.159Z,11.80
2022-10-31T20:36:15.063Z,11.90
2022-10-31T20:38:42.854Z,11.90
2022-10-31T20:41:10.855Z,11.70
2022-10-31T20:43:38.557Z,11.50
2022-10-31T20:46:12.590Z,11.50
2022-10-31T20:48:40.661Z,11.50
2022-10-31T20:51:13.511Z,11.60
2022-10-31T20:53:40.932Z,11.50
2022-10-31T20:56:13.261Z,11.50
2022-10-31T20:58:41.944Z,11.50
2022-10-31T21:01:13.623Z,11.60
2022-10-31T21:03:41.051Z,11.60
2022-10-31T21:06:09.057Z,11.60
2022-10-31T21:08:37.201Z,11.70
2022-10-31T21:11:25.116Z,11.60
2022-10-31T21:13:52.603Z,11.60
2022-10-31T21:16:22.840Z,11.60
2022-10-31T21:18:51.193Z,11.60
2022-10-31T21:21:29.035Z,11.70
2022-10-31T21:24:05.425Z,11.70
2022-10-31T21:26:37.073Z,11.70
2022-10-31T21:29:05.495Z,11.60
2022-10-31T21:31:33.367Z,11.60
2022-10-31T21:34:00.392Z,11.60
2022-10-31T21:36:27.537Z,11.30
2022-10-31T21:38:55.753Z,11.20
2022-10-31T21:41:24.043Z,11.10
2022-10-31T21:43:54.362Z,11.30
2022-10-31T21:46:30.500Z,11.50
2022-10-31T21:48:57.976Z,11.20
2022-10-31T21:51:30.070Z,11.10
2022-10-31T21:54:16.028Z,11.30
2022-10-31T21:56:43.979Z,11.40
2022-10-31T21:59:11.700Z,11.20
2022-10-31T22:01:38.826Z,11.20
2022-10-31T22:04:06.366Z,11.00
2022-10-31T22:06:33.994Z,10.80
2022-10-31T22:09:03.068Z,10.80
2022-10-31T22:11:30.658Z,10.80
2022-10-31T22:14:00.007Z,10.70
2022-10-31T22:16:29.295Z,10.70
2022-10-31T22:18:59.776Z,10.80
2022-10-31T22:21:28.290Z,10.80
2022-10-31T22:24:00.604Z,10.90
2022-10-31T22:26:31.054Z,10.90
2022-10-31T22:29:02.189Z,10.90
2022-10-31T22:31:30.939Z,10.80
2022-10-31T22:33:58.282Z,10.70
2022-10-31T22:36:27.929Z,10.80
2022-10-31T22:38:55.315Z,10.80
2022-10-31T22:41:25.509Z,10.80
2022-10-31T22:43:52.724Z,10.80
2022-10-31T22:46:30.974Z,10.70
2022-10-31T22:49:00.518Z,10.70
2022-10-31T22:51:29.994Z,10.80
2022-10-31T22:53:57.049Z,10.90
2022-10-31T22:56:27.011Z,11.00
2022-10-31T22:58:54.138Z,11.10
2022-10-31T23:01:24.293Z,11.00
2022-10-31T23:03:51.944Z,11.10
2022-10-31T23:06:23.992Z,11.20
2022-10-31T23:08:52.121Z,11.20
2022-10-31T23:11:28.822Z,11.20
2022-10-31T23:14:09.352Z,11.30
2022-10-31T23:16:45.785Z,11.30
2022-10-31T23:19:16.641Z,11.30
2022-10-31T23:22:02.401Z,11.40
2022-10-31T23:24:37.875Z,11.40
2022-10-31T23:27:16.848Z,11.40
2022-10-31T23:29:54.645Z,11.30
2022-10-31T23:32:33.824Z,11.20
2022-10-31T23:35:07.630Z,11.20
2022-10-31T23:37:37.523Z,11.20
2022-10-31T23:40:06.496Z,11.20
2022-10-31T23:42:33.521Z,11.10
2022-10-31T23:45:00.545Z,11.20
2022-10-31T23:47:27.534Z,11.30
2022-10-31T23:49:54.733Z,11.30
2022-10-31T23:52:21.764Z,11.30
2022-10-31T23:54:48.864Z,11.30
2022-10-31T23:57:16.807Z,11.30
2022-10-31T23:59:44.041Z,11.40
